createdAt,value
2023-05-14T00:00:55.592Z,13.09
2023-05-14T00:03:25.751Z,13.07
2023-05-14T00:05:54.414Z,13.04
2023-05-14T00:08:23.082Z,12.99
2023-05-14T00:10:51.990Z,12.94
2023-05-14T00:13:20.569Z,12.89
2023-05-14T00:15:49.085Z,12.85
2023-05-14T00:18:17.669Z,12.80
2023-05-14T00:20:47.553Z,12.76
2023-05-14T00:23:16.041Z,12.73
2023-05-14T00:25:44.635Z,12.69
2023-05-14T00:28:13.132Z,12.65
2023-05-14T00:30:41.791Z,12.62
2023-05-14T00:33:10.837Z,12.60
2023-05-14T00:35:39.503Z,12.59
2023-05-14T00:38:09.413Z,12.58
2023-05-14T00:40:38.010Z,12.59
2023-05-14T00:43:06.589Z,12.56
2023-05-14T00:45:35.108Z,12.54
2023-05-14T00:48:04.052Z,12.50
2023-05-14T00:50:32.836Z,12.45
2023-05-14T00:53:01.732Z,12.40
2023-05-14T00:55:32.044Z,12.35
2023-05-14T00:58:01.033Z,12.33
2023-05-14T01:00:29.870Z,12.30
2023-05-14T01:03:01.440Z,12.27
2023-05-14T01:05:37.554Z,12.25
2023-05-14T01:08:14.562Z,12.22
2023-05-14T01:10:52.419Z,12.18
2023-05-14T01:13:28.217Z,12.15
2023-05-14T01:16:00.970Z,12.11
2023-05-14T01:18:30.492Z,12.07
2023-05-14T01:20:59.910Z,12.03
2023-05-14T01:23:29.831Z,12.00
2023-05-14T01:25:58.469Z,11.98
2023-05-14T01:28:33.799Z,11.96
2023-05-14T01:31:07.940Z,11.92
2023-05-14T01:33:38.119Z,11.89
2023-05-14T01:36:07.440Z,11.85
2023-05-14T01:38:38.692Z,11.83
2023-05-14T01:41:07.870Z,11.81
2023-05-14T01:43:37.437Z,11.79
2023-05-14T01:46:06.243Z,11.77
2023-05-14T01:48:35.047Z,11.74
2023-05-14T01:51:06.620Z,11.71
2023-05-14T01:53:35.228Z,11.69
2023-05-14T01:56:05.477Z,11.67
2023-05-14T01:58:34.307Z,11.64
2023-05-14T02:01:03.016Z,11.60
2023-05-14T02:03:31.528Z,11.57
2023-05-14T02:06:00.448Z,11.55
2023-05-14T02:08:29.404Z,11.53
2023-05-14T02:10:57.999Z,11.52
2023-05-14T02:13:28.422Z,11.50
2023-05-14T02:15:57.567Z,11.47
2023-05-14T02:18:26.245Z,11.42
2023-05-14T02:20:54.785Z,11.40
2023-05-14T02:23:34.230Z,11.35
2023-05-14T02:26:06.975Z,11.31
2023-05-14T02:28:36.859Z,11.26
2023-05-14T02:31:05.371Z,11.23
2023-05-14T02:33:34.077Z,11.19
2023-05-14T02:36:02.588Z,11.18
2023-05-14T02:38:31.162Z,11.14
2023-05-14T02:40:59.648Z,11.11
2023-05-14T02:43:28.200Z,11.09
2023-05-14T02:45:58.031Z,11.07
2023-05-14T02:48:27.179Z,11.02
2023-05-14T02:50:55.770Z,11.00
2023-05-14T02:53:24.444Z,10.94
2023-05-14T02:55:52.973Z,10.91
2023-05-14T02:58:28.175Z,10.87
2023-05-14T03:00:58.532Z,10.83
2023-05-14T03:03:27.608Z,10.77
2023-05-14T03:05:56.800Z,10.74
2023-05-14T03:08:25.819Z,10.70
2023-05-14T03:10:54.324Z,10.66
2023-05-14T03:13:22.958Z,10.61
2023-05-14T03:15:54.809Z,10.57
2023-05-14T03:18:24.821Z,10.55
2023-05-14T03:20:53.363Z,10.53
2023-05-14T03:23:21.961Z,10.52
2023-05-14T03:25:50.996Z,10.51
2023-05-14T03:28:19.442Z,10.48
2023-05-14T03:30:48.101Z,10.46
2023-05-14T03:33:16.882Z,10.46
2023-05-14T03:35:46.894Z,10.42
2023-05-14T03:38:15.748Z,10.40
2023-05-14T03:40:45.962Z,10.36
2023-05-14T03:43:14.621Z,10.35
2023-05-14T03:45:43.248Z,10.34
2023-05-14T03:48:11.772Z,10.30
2023-05-14T03:50:40.595Z,10.27
2023-05-14T03:53:10.591Z,10.24
2023-05-14T03:55:39.105Z,10.22
2023-05-14T03:58:13.684Z,10.22
2023-05-14T04:00:42.726Z,10.20
2023-05-14T04:03:12.779Z,10.19
2023-05-14T04:05:41.337Z,10.17
2023-05-14T04:08:11.330Z,10.14
2023-05-14T04:10:39.937Z,10.13
2023-05-14T04:13:08.553Z,10.11
2023-05-14T04:15:40.016Z,10.08
2023-05-14T04:18:09.351Z,10.05
2023-05-14T04:20:37.992Z,10.01
2023-05-14T04:23:07.144Z,9.98
2023-05-14T04:25:37.067Z,9.98
2023-05-14T04:28:05.951Z,9.98
2023-05-14T04:30:37.148Z,9.97
2023-05-14T04:33:06.531Z,9.98
2023-05-14T04:35:34.980Z,10.00
2023-05-14T04:38:03.478Z,10.02
2023-05-14T04:40:32.367Z,10.03
2023-05-14T04:43:02.179Z,10.03
2023-05-14T04:45:32.253Z,10.04
2023-05-14T04:48:02.746Z,10.05
2023-05-14T04:50:31.412Z,10.06
2023-05-14T04:52:59.920Z,10.08
2023-05-14T04:55:28.541Z,10.09
2023-05-14T04:57:57.075Z,10.11
2023-05-14T05:00:27.321Z,10.14
2023-05-14T05:02:56.299Z,10.17
2023-05-14T05:05:25.602Z,10.21
2023-05-14T05:07:54.084Z,10.25
2023-05-14T05:10:22.928Z,10.28
2023-05-14T05:12:51.635Z,10.32
2023-05-14T05:15:20.285Z,10.35
2023-05-14T05:17:50.194Z,10.40
2023-05-14T05:20:18.892Z,10.43
2023-05-14T05:22:47.489Z,10.47
2023-05-14T05:25:15.996Z,10.51
2023-05-14T05:27:44.591Z,10.54
2023-05-14T05:30:15.476Z,10.58
2023-05-14T05:32:44.164Z,10.62
2023-05-14T05:35:14.021Z,10.65
2023-05-14T05:37:45.174Z,10.69
2023-05-14T05:40:14.412Z,10.71
2023-05-14T05:42:43.176Z,10.74
2023-05-14T05:45:12.255Z,10.77
2023-05-14T05:47:40.824Z,10.82
2023-05-14T05:50:10.870Z,10.87
2023-05-14T05:52:40.842Z,10.92
2023-05-14T05:55:10.367Z,10.97
2023-05-14T05:57:38.813Z,11.01
2023-05-14T06:00:13.399Z,11.07
2023-05-14T06:02:41.895Z,11.12
2023-05-14T06:05:11.816Z,11.19
2023-05-14T06:07:41.696Z,11.24
2023-05-14T06:10:10.379Z,11.30
2023-05-14T06:12:38.846Z,11.36
2023-05-14T06:15:08.611Z,11.42
2023-05-14T06:17:37.166Z,11.49
2023-05-14T06:20:07.905Z,11.56
2023-05-14T06:22:39.419Z,11.63
2023-05-14T06:25:10.196Z,11.70
2023-05-14T06:27:38.703Z,11.77
2023-05-14T06:30:08.049Z,11.85
2023-05-14T06:32:36.627Z,11.93
2023-05-14T06:35:06.189Z,12.01
2023-05-14T06:37:34.693Z,12.10
2023-05-14T06:40:03.705Z,12.18
2023-05-14T06:42:33.589Z,12.26
2023-05-14T06:45:02.108Z,12.35
2023-05-14T06:47:30.695Z,12.43
2023-05-14T06:50:01.087Z,12.51
2023-05-14T06:52:29.591Z,12.60
2023-05-14T06:54:58.247Z,12.67
2023-05-14T06:57:26.747Z,12.74
2023-05-14T06:59:57.493Z,12.81
2023-05-14T07:02:26.096Z,12.89
2023-05-14T07:04:54.983Z,12.97
2023-05-14T07:07:23.457Z,13.05
2023-05-14T07:09:51.948Z,13.11
2023-05-14T07:12:20.459Z,13.17
2023-05-14T07:14:48.926Z,13.25
2023-05-14T07:17:19.009Z,13.33
2023-05-14T07:19:47.632Z,13.44
2023-05-14T07:22:16.205Z,13.53
2023-05-14T07:24:44.901Z,13.65
2023-05-14T07:27:13.914Z,13.74
2023-05-14T07:29:42.702Z,13.85
2023-05-14T07:32:13.983Z,13.94
2023-05-14T07:34:46.474Z,14.03
2023-05-14T07:37:15.443Z,14.12
2023-05-14T07:39:44.418Z,14.24
2023-05-14T07:42:21.786Z,14.36
2023-05-14T07:44:54.091Z,14.48
2023-05-14T07:47:23.342Z,14.57
2023-05-14T07:49:57.891Z,14.67
2023-05-14T07:52:30.490Z,14.76
2023-05-14T07:55:00.294Z,14.85
2023-05-14T07:57:29.321Z,14.93
2023-05-14T07:59:59.649Z,15.02
2023-05-14T08:02:28.934Z,15.13
2023-05-14T08:05:00.210Z,15.22
2023-05-14T08:07:30.530Z,15.30
2023-05-14T08:09:59.684Z,15.42
2023-05-14T08:12:28.768Z,15.52
2023-05-14T08:14:57.336Z,15.61
2023-05-14T08:17:26.048Z,15.69
2023-05-14T08:19:54.851Z,15.76
2023-05-14T08:22:27.556Z,15.82
2023-05-14T08:24:56.129Z,15.88
2023-05-14T08:27:24.625Z,15.94
2023-05-14T08:29:53.173Z,16.00
2023-05-14T08:32:23.675Z,16.07
2023-05-14T08:34:52.949Z,16.16
2023-05-14T08:37:21.541Z,16.25
2023-05-14T08:39:52.597Z,16.33
2023-05-14T08:42:22.856Z,16.43
2023-05-14T08:44:55.704Z,16.51
2023-05-14T08:47:25.745Z,16.62
2023-05-14T08:50:02.270Z,16.74
2023-05-14T08:52:31.235Z,16.84
2023-05-14T08:55:03.937Z,16.94
2023-05-14T08:57:33.803Z,17.03
2023-05-14T09:00:06.476Z,17.12
2023-05-14T09:02:36.032Z,17.20
2023-05-14T09:05:04.764Z,17.27
2023-05-14T09:07:33.293Z,17.37
2023-05-14T09:10:03.938Z,17.43
2023-05-14T09:12:32.447Z,17.52
2023-05-14T09:15:01.033Z,17.59
2023-05-14T09:17:29.599Z,17.67
2023-05-14T09:19:58.199Z,17.77
2023-05-14T09:22:31.807Z,17.85
2023-05-14T09:25:06.720Z,17.92
2023-05-14T09:27:35.541Z,17.99
2023-05-14T09:30:09.104Z,18.08
2023-05-14T09:32:39.065Z,18.16
2023-05-14T09:35:17.490Z,18.20
2023-05-14T09:37:47.382Z,18.21
2023-05-14T09:40:19.287Z,18.30
2023-05-14T09:42:49.278Z,18.35
2023-05-14T09:45:20.241Z,18.41
2023-05-14T09:47:48.891Z,18.50
2023-05-14T09:50:17.564Z,18.59
2023-05-14T09:52:46.133Z,18.66
2023-05-14T09:55:15.248Z,18.73
2023-05-14T09:57:45.171Z,18.80
2023-05-14T10:00:18.954Z,18.89
2023-05-14T10:02:48.803Z,18.96
2023-05-14T10:05:17.710Z,19.03
2023-05-14T10:07:49.669Z,19.09
2023-05-14T10:10:21.483Z,19.14
2023-05-14T10:12:54.608Z,19.24
2023-05-14T10:15:28.285Z,19.33
2023-05-14T10:17:59.839Z,19.42
2023-05-14T10:20:29.230Z,19.50
2023-05-14T10:22:59.635Z,19.57
2023-05-14T10:25:28.705Z,19.64
2023-05-14T10:28:02.079Z,19.70
2023-05-14T10:30:30.523Z,19.76
2023-05-14T10:33:09.611Z,19.83
2023-05-14T10:35:57.557Z,19.92
2023-05-14T10:38:28.361Z,19.99
2023-05-14T10:40:59.870Z,20.08
2023-05-14T10:43:31.273Z,20.14
2023-05-14T10:46:01.562Z,20.15
2023-05-14T10:48:30.308Z,20.23
2023-05-14T10:50:59.138Z,20.32
2023-05-14T10:53:35.804Z,20.41
2023-05-14T10:56:06.500Z,20.47
2023-05-14T10:58:39.141Z,20.53
2023-05-14T11:01:09.252Z,20.59
2023-05-14T11:03:42.842Z,20.62
2023-05-14T11:06:13.208Z,20.59
2023-05-14T11:08:42.742Z,20.46
2023-05-14T11:11:11.967Z,20.43
2023-05-14T11:13:42.608Z,20.39
2023-05-14T11:16:22.495Z,20.39
2023-05-14T11:19:01.877Z,20.47
2023-05-14T11:21:31.627Z,20.61
2023-05-14T11:24:03.759Z,20.75
2023-05-14T11:26:33.862Z,20.86
2023-05-14T11:29:03.813Z,20.92
2023-05-14T11:31:32.507Z,21.05
2023-05-14T11:34:03.822Z,21.20
2023-05-14T11:36:32.489Z,21.33
2023-05-14T11:39:00.973Z,21.46
2023-05-14T11:41:31.107Z,21.53
2023-05-14T11:43:59.927Z,21.64
2023-05-14T11:46:30.987Z,21.75
2023-05-14T11:48:59.666Z,21.86
2023-05-14T11:51:28.183Z,21.88
2023-05-14T11:53:56.633Z,21.96
2023-05-14T11:56:25.203Z,22.05
2023-05-14T11:58:58.000Z,22.15
2023-05-14T12:01:27.381Z,22.29
2023-05-14T12:03:57.556Z,22.43
2023-05-14T12:06:32.057Z,22.56
2023-05-14T12:09:01.546Z,22.69
2023-05-14T12:11:32.160Z,22.80
2023-05-14T12:14:01.197Z,22.87
2023-05-14T12:16:32.710Z,22.96
2023-05-14T12:19:03.468Z,22.98
2023-05-14T12:21:32.584Z,22.99
2023-05-14T12:24:01.148Z,23.03
2023-05-14T12:26:29.676Z,23.02
2023-05-14T12:29:00.567Z,23.10
2023-05-14T12:31:30.425Z,23.03
2023-05-14T12:33:59.276Z,22.91
2023-05-14T12:36:29.354Z,22.87
2023-05-14T12:39:03.562Z,22.87
2023-05-14T12:41:35.161Z,22.91
2023-05-14T12:44:05.262Z,23.04
2023-05-14T12:46:34.538Z,23.09
2023-05-14T12:49:03.073Z,23.15
2023-05-14T12:51:32.995Z,23.18
2023-05-14T12:54:01.557Z,23.30
2023-05-14T12:56:31.670Z,23.39
2023-05-14T12:59:00.228Z,23.46
2023-05-14T13:01:28.755Z,23.59
2023-05-14T13:03:58.391Z,23.73
2023-05-14T13:06:26.981Z,23.89
2023-05-14T13:08:59.896Z,24.07
2023-05-14T13:11:30.299Z,24.11
2023-05-14T13:13:59.092Z,24.21
2023-05-14T13:16:28.091Z,24.34
2023-05-14T13:18:57.116Z,24.43
2023-05-14T13:21:25.613Z,24.48
2023-05-14T13:23:54.147Z,24.45
2023-05-14T13:26:26.505Z,24.47
2023-05-14T13:28:55.198Z,24.59
2023-05-14T13:31:23.661Z,24.67
2023-05-14T13:33:52.227Z,24.73
2023-05-14T13:36:20.733Z,24.77
2023-05-14T13:38:49.251Z,24.85
2023-05-14T13:41:17.781Z,24.87
2023-05-14T13:43:47.628Z,25.04
2023-05-14T13:46:16.197Z,25.16
2023-05-14T13:48:44.631Z,25.31
2023-05-14T13:51:13.093Z,25.38
2023-05-14T13:53:41.629Z,25.39
2023-05-14T13:56:10.126Z,25.43
2023-05-14T13:58:38.581Z,25.54
2023-05-14T14:01:08.708Z,25.65
2023-05-14T14:03:37.244Z,25.58
2023-05-14T14:06:06.089Z,25.58
2023-05-14T14:08:34.597Z,25.59
2023-05-14T14:11:03.287Z,25.69
2023-05-14T14:13:31.784Z,25.72
2023-05-14T14:16:00.438Z,25.76
2023-05-14T14:18:30.472Z,25.70
2023-05-14T14:20:59.450Z,25.61
2023-05-14T14:23:28.014Z,25.63
2023-05-14T14:25:56.600Z,25.73
2023-05-14T14:28:25.098Z,25.89
2023-05-14T14:30:53.711Z,25.96
2023-05-14T14:33:22.316Z,26.11
2023-05-14T14:35:52.964Z,26.27
2023-05-14T14:38:21.464Z,26.49
2023-05-14T14:40:49.976Z,26.60
2023-05-14T14:43:18.771Z,26.67
2023-05-14T14:45:48.921Z,26.74
2023-05-14T14:48:25.903Z,26.83
2023-05-14T14:50:56.361Z,26.89
2023-05-14T14:53:25.509Z,26.80
2023-05-14T14:55:54.192Z,26.70
2023-05-14T14:58:22.686Z,26.67
2023-05-14T15:00:53.374Z,26.74
2023-05-14T15:03:22.515Z,26.70
2023-05-14T15:05:52.069Z,26.68
2023-05-14T15:08:26.041Z,26.66
2023-05-14T15:10:54.980Z,26.53
2023-05-14T15:13:24.531Z,26.39
2023-05-14T15:15:53.350Z,26.36
2023-05-14T15:18:21.979Z,26.38
2023-05-14T15:20:50.783Z,26.21
2023-05-14T15:23:20.872Z,26.03
2023-05-14T15:25:50.062Z,25.87
2023-05-14T15:28:18.831Z,25.82
2023-05-14T15:30:49.185Z,25.81
2023-05-14T15:33:19.383Z,25.84
2023-05-14T15:35:48.190Z,25.80
2023-05-14T15:38:16.817Z,25.76
2023-05-14T15:40:46.744Z,25.70
2023-05-14T15:43:15.401Z,25.60
2023-05-14T15:45:45.630Z,25.49
2023-05-14T15:48:14.149Z,25.36
2023-05-14T15:50:43.296Z,25.22
2023-05-14T15:53:12.106Z,25.07
2023-05-14T15:55:40.729Z,24.92
2023-05-14T15:58:10.655Z,24.79
2023-05-14T16:00:39.207Z,24.69
2023-05-14T16:03:07.880Z,24.59
2023-05-14T16:05:36.677Z,24.50
2023-05-14T16:08:05.215Z,24.40
2023-05-14T16:10:33.685Z,24.30
2023-05-14T16:13:02.197Z,24.19
2023-05-14T16:15:32.094Z,24.10
2023-05-14T16:18:01.512Z,24.01
2023-05-14T16:20:30.075Z,23.94
2023-05-14T16:22:58.637Z,23.89
2023-05-14T16:25:27.422Z,23.92
2023-05-14T16:27:55.979Z,23.92
2023-05-14T16:30:24.707Z,23.96
2023-05-14T16:32:54.994Z,23.97
2023-05-14T16:35:23.532Z,23.97
2023-05-14T16:37:51.969Z,23.98
2023-05-14T16:40:23.377Z,23.99
2023-05-14T16:42:52.235Z,24.00
2023-05-14T16:45:20.690Z,23.99
2023-05-14T16:47:49.252Z,23.99
2023-05-14T16:50:19.417Z,23.94
2023-05-14T16:52:47.960Z,23.90
2023-05-14T16:55:16.661Z,23.89
2023-05-14T16:57:45.152Z,23.82
2023-05-14T17:00:15.217Z,23.77
2023-05-14T17:02:43.695Z,23.70
2023-05-14T17:05:12.094Z,23.67
2023-05-14T17:07:41.912Z,23.66
2023-05-14T17:10:11.583Z,23.68
2023-05-14T17:12:40.007Z,23.69
2023-05-14T17:15:10.283Z,23.67
2023-05-14T17:17:39.101Z,23.65
2023-05-14T17:20:08.717Z,23.61
2023-05-14T17:22:37.443Z,23.54
2023-05-14T17:25:08.696Z,23.46
2023-05-14T17:27:37.853Z,23.37
2023-05-14T17:30:08.623Z,23.30
2023-05-14T17:32:38.103Z,23.24
2023-05-14T17:35:09.634Z,23.15
2023-05-14T17:37:38.956Z,23.10
2023-05-14T17:40:11.398Z,23.03
2023-05-14T17:42:40.490Z,22.96
2023-05-14T17:45:11.178Z,22.87
2023-05-14T17:47:40.292Z,22.80
2023-05-14T17:50:11.405Z,22.69
2023-05-14T17:52:42.237Z,22.53
2023-05-14T17:55:13.680Z,22.36
2023-05-14T17:57:42.818Z,22.20
2023-05-14T18:00:15.639Z,22.06
2023-05-14T18:02:45.232Z,21.89
2023-05-14T18:05:20.702Z,21.73
2023-05-14T18:07:51.165Z,21.55
2023-05-14T18:10:25.831Z,21.40
2023-05-14T18:12:56.654Z,21.23
2023-05-14T18:15:28.201Z,21.05
2023-05-14T18:17:57.705Z,20.87
2023-05-14T18:20:27.452Z,20.72
2023-05-14T18:22:56.501Z,20.55
2023-05-14T18:25:27.992Z,20.39
2023-05-14T18:27:57.911Z,20.24
2023-05-14T18:30:27.214Z,20.12
2023-05-14T18:32:55.890Z,19.95
2023-05-14T18:35:24.704Z,19.81
2023-05-14T18:37:53.463Z,19.71
2023-05-14T18:40:21.983Z,19.58
2023-05-14T18:42:52.146Z,19.45
2023-05-14T18:45:22.209Z,19.35
2023-05-14T18:47:51.521Z,19.26
2023-05-14T18:50:20.475Z,19.16
2023-05-14T18:52:49.373Z,19.08
2023-05-14T18:55:18.640Z,19.02
2023-05-14T18:57:47.210Z,18.93
2023-05-14T19:00:18.002Z,18.89
2023-05-14T19:02:46.700Z,18.84
2023-05-14T19:05:15.698Z,18.78
2023-05-14T19:07:48.090Z,18.71
2023-05-14T19:10:16.861Z,18.65
2023-05-14T19:12:48.513Z,18.61
2023-05-14T19:15:18.430Z,18.56
2023-05-14T19:17:50.262Z,18.52
2023-05-14T19:20:18.989Z,18.47
2023-05-14T19:22:48.838Z,18.43
2023-05-14T19:25:17.968Z,18.40
2023-05-14T19:27:50.887Z,18.37
2023-05-14T19:30:23.148Z,18.28
2023-05-14T19:32:52.121Z,18.22
2023-05-14T19:35:21.214Z,18.16
2023-05-14T19:37:50.591Z,18.11
2023-05-14T19:40:20.316Z,18.06
2023-05-14T19:42:49.344Z,18.03
2023-05-14T19:45:18.231Z,18.00
2023-05-14T19:47:48.711Z,17.94
2023-05-14T19:50:17.899Z,17.88
2023-05-14T19:52:46.946Z,17.81
2023-05-14T19:55:16.341Z,17.75
2023-05-14T19:57:45.493Z,17.67
2023-05-14T20:00:15.633Z,17.65
2023-05-14T20:02:45.069Z,17.62
2023-05-14T20:05:15.725Z,17.59
2023-05-14T20:07:45.007Z,17.57
2023-05-14T20:10:14.300Z,17.54
2023-05-14T20:12:43.574Z,17.51
2023-05-14T20:15:12.993Z,17.48
2023-05-14T20:17:42.270Z,17.45
2023-05-14T20:20:12.097Z,17.41
2023-05-14T20:22:44.171Z,17.37
2023-05-14T20:25:12.956Z,17.33
2023-05-14T20:27:45.177Z,17.30
2023-05-14T20:30:14.315Z,17.28
2023-05-14T20:32:43.764Z,17.24
2023-05-14T20:35:12.761Z,17.23
2023-05-14T20:37:43.845Z,17.19
2023-05-14T20:40:13.525Z,17.16
2023-05-14T20:42:42.725Z,17.14
2023-05-14T20:45:12.346Z,17.10
2023-05-14T20:47:41.625Z,17.10
2023-05-14T20:50:10.702Z,17.07
2023-05-14T20:52:39.197Z,17.05
2023-05-14T20:55:10.231Z,17.02
2023-05-14T20:57:43.347Z,16.99
2023-05-14T21:00:13.315Z,16.96
2023-05-14T21:02:41.906Z,16.93
2023-05-14T21:05:10.684Z,16.90
2023-05-14T21:07:39.579Z,16.85
2023-05-14T21:10:10.851Z,16.82
2023-05-14T21:12:39.369Z,16.78
2023-05-14T21:15:09.092Z,16.70
2023-05-14T21:17:37.710Z,16.65
2023-05-14T21:20:07.300Z,16.59
2023-05-14T21:22:35.904Z,16.54
2023-05-14T21:25:04.902Z,16.50
2023-05-14T21:27:34.952Z,16.49
2023-05-14T21:30:08.895Z,16.45
2023-05-14T21:32:37.585Z,16.42
2023-05-14T21:35:06.989Z,16.38
2023-05-14T21:37:35.582Z,16.34
2023-05-14T21:40:14.899Z,16.28
2023-05-14T21:42:44.710Z,16.25
2023-05-14T21:45:13.508Z,16.20
2023-05-14T21:47:42.205Z,16.17
2023-05-14T21:50:11.388Z,16.15
2023-05-14T21:52:40.170Z,16.13
2023-05-14T21:55:09.512Z,16.07
2023-05-14T21:57:38.307Z,16.02
2023-05-14T22:00:12.483Z,15.99
2023-05-14T22:02:43.680Z,15.95
2023-05-14T22:05:12.321Z,15.91
2023-05-14T22:07:41.228Z,15.87
2023-05-14T22:10:10.664Z,15.84
2023-05-14T22:12:39.125Z,15.81
2023-05-14T22:15:10.519Z,15.77
2023-05-14T22:17:39.936Z,15.72
2023-05-14T22:20:10.109Z,15.68
2023-05-14T22:22:39.051Z,15.62
2023-05-14T22:25:08.630Z,15.58
2023-05-14T22:27:37.146Z,15.56
2023-05-14T22:30:06.987Z,15.56
2023-05-14T22:32:36.869Z,15.51
2023-05-14T22:35:06.164Z,15.47
2023-05-14T22:37:34.967Z,15.41
2023-05-14T22:40:05.257Z,15.35
2023-05-14T22:42:33.906Z,15.29
2023-05-14T22:45:02.749Z,15.23
2023-05-14T22:47:31.634Z,15.17
2023-05-14T22:50:01.727Z,15.06
2023-05-14T22:52:30.544Z,14.98
2023-05-14T22:54:59.105Z,14.91
2023-05-14T22:57:27.773Z,14.86
2023-05-14T22:59:56.473Z,14.82
2023-05-14T23:02:25.056Z,14.77
2023-05-14T23:04:53.760Z,14.72
2023-05-14T23:07:24.040Z,14.68
2023-05-14T23:09:52.608Z,14.62
2023-05-14T23:12:21.284Z,14.60
2023-05-14T23:14:50.102Z,14.57
2023-05-14T23:17:18.949Z,14.54
2023-05-14T23:19:47.616Z,14.52
2023-05-14T23:22:16.375Z,14.50
2023-05-14T23:24:46.370Z,14.47
2023-05-14T23:27:14.876Z,14.44
2023-05-14T23:29:43.590Z,14.40
2023-05-14T23:32:12.230Z,14.36
2023-05-14T23:34:41.049Z,14.33
2023-05-14T23:37:09.713Z,14.29
2023-05-14T23:39:38.496Z,14.24
2023-05-14T23:42:09.025Z,14.19
2023-05-14T23:44:37.847Z,14.14
2023-05-14T23:47:08.765Z,14.10
2023-05-14T23:49:37.926Z,14.06
2023-05-14T23:52:09.733Z,13.99
2023-05-14T23:54:39.012Z,13.96
2023-05-14T23:57:11.859Z,13.93
2023-05-14T23:59:42.639Z,13.90
